createdAt,value
2022-12-17T00:02:44.823Z,5.43
2022-12-17T00:05:30.458Z,5.77
2022-12-17T00:08:21.953Z,5.37
2022-12-17T00:11:09.739Z,5.43
2022-12-17T00:14:04.340Z,5.63
2022-12-17T00:16:53.836Z,5.40
2022-12-17T00:19:39.317Z,5.83
2022-12-17T00:22:24.622Z,5.63
2022-12-17T00:25:12.586Z,5.83
2022-12-17T00:27:58.208Z,5.43
2022-12-17T00:30:46.378Z,6.17
2022-12-17T00:33:32.481Z,5.17
2022-12-17T00:36:20.445Z,5.67
2022-12-17T00:39:11.287Z,5.30
2022-12-17T00:41:56.942Z,5.63
2022-12-17T00:44:42.339Z,5.03
2022-12-17T00:47:27.869Z,5.70
2022-12-17T00:50:16.234Z,5.73
2022-12-17T00:53:01.855Z,5.97
2022-12-17T00:55:47.181Z,5.87
2022-12-17T00:58:32.511Z,5.93
2022-12-17T01:01:19.318Z,5.80
2022-12-17T01:04:05.731Z,5.77
2022-12-17T01:06:57.291Z,5.40
2022-12-17T01:09:42.625Z,5.13
2022-12-17T01:12:30.232Z,5.57
2022-12-17T01:15:15.970Z,5.33
2022-12-17T01:18:01.322Z,5.87
2022-12-17T01:20:46.962Z,4.97
2022-12-17T01:23:35.674Z,5.27
2022-12-17T01:26:23.760Z,4.87
2022-12-17T01:29:09.356Z,4.80
2022-12-17T01:32:08.234Z,5.30
2022-12-17T01:34:54.081Z,5.10
2022-12-17T01:37:41.451Z,5.17
2022-12-17T01:40:30.379Z,4.90
2022-12-17T01:43:15.832Z,5.03
2022-12-17T01:49:15.381Z,5.13
2022-12-17T01:52:01.201Z,5.23
2022-12-17T01:54:55.186Z,4.90
2022-12-17T01:57:40.891Z,5.40
2022-12-17T02:00:32.363Z,5.00
2022-12-17T02:03:18.921Z,5.13
2022-12-17T02:06:38.938Z,4.93
2022-12-17T02:09:36.869Z,4.93
2022-12-17T02:12:49.346Z,5.30
2022-12-17T02:16:22.188Z,5.10
2022-12-17T02:19:20.882Z,4.47
2022-12-17T02:22:11.069Z,4.57
2022-12-17T02:25:17.540Z,4.90
2022-12-17T02:28:23.261Z,4.53
2022-12-17T02:31:09.439Z,4.70
2022-12-17T02:33:55.190Z,4.53
2022-12-17T02:36:40.862Z,4.40
2022-12-17T02:39:26.108Z,5.07
2022-12-17T02:42:14.703Z,4.77
2022-12-17T02:45:04.810Z,4.67
2022-12-17T02:47:50.453Z,4.47
2022-12-17T02:50:36.342Z,4.30
2022-12-17T02:53:28.738Z,4.20
2022-12-17T02:56:19.228Z,3.93
2022-12-17T02:59:05.123Z,3.87
2022-12-17T03:01:59.324Z,4.33
2022-12-17T03:04:45.667Z,4.20
2022-12-17T03:07:33.182Z,4.30
2022-12-17T03:10:21.009Z,4.17
2022-12-17T03:13:09.403Z,3.73
2022-12-17T03:15:58.663Z,4.00
2022-12-17T03:18:56.122Z,4.17
2022-12-17T03:21:42.045Z,3.93
2022-12-17T03:24:30.442Z,3.53
2022-12-17T03:27:15.701Z,4.00
2022-12-17T03:30:01.005Z,4.30
2022-12-17T03:32:46.764Z,4.13
2022-12-17T03:35:32.452Z,4.03
2022-12-17T03:38:20.114Z,4.40
2022-12-17T03:41:16.829Z,3.70
2022-12-17T03:44:04.921Z,3.77
2022-12-17T03:46:50.596Z,3.87
2022-12-17T03:49:36.045Z,3.80
2022-12-17T03:52:24.501Z,3.70
2022-12-17T03:55:12.384Z,3.70
2022-12-17T03:58:00.958Z,3.97
2022-12-17T04:00:51.680Z,3.70
2022-12-17T04:03:37.766Z,3.63
2022-12-17T04:06:23.345Z,4.20
2022-12-17T04:09:08.575Z,3.70
2022-12-17T04:11:53.758Z,4.07
2022-12-17T04:14:42.331Z,3.97
2022-12-17T04:17:27.755Z,4.07
2022-12-17T04:20:13.439Z,4.20
2022-12-17T04:23:18.873Z,4.13
2022-12-17T04:26:04.349Z,4.10
2022-12-17T04:28:49.625Z,3.63
2022-12-17T04:31:35.166Z,3.67
2022-12-17T04:34:20.703Z,3.80
2022-12-17T04:37:07.020Z,4.30
2022-12-17T04:40:36.317Z,3.70
2022-12-17T04:43:32.756Z,4.10
2022-12-17T04:46:18.315Z,4.30
2022-12-17T04:49:06.622Z,3.70
2022-12-17T04:51:52.060Z,3.50
2022-12-17T04:54:40.503Z,3.70
2022-12-17T04:57:25.778Z,3.83
2022-12-17T05:00:12.003Z,3.30
2022-12-17T05:03:00.463Z,3.70
2022-12-17T05:05:48.688Z,3.70
2022-12-17T05:08:38.249Z,3.40
2022-12-17T05:11:43.087Z,3.27
2022-12-17T05:14:28.918Z,3.00
2022-12-17T05:17:17.366Z,3.13
2022-12-17T05:20:02.951Z,3.60
2022-12-17T05:22:48.399Z,3.27
2022-12-17T05:25:36.462Z,3.40
2022-12-17T05:28:21.862Z,3.40
2022-12-17T05:31:12.740Z,3.50
2022-12-17T05:33:58.756Z,3.83
2022-12-17T05:36:49.612Z,3.40
2022-12-17T05:39:35.285Z,3.70
2022-12-17T05:42:40.650Z,3.73
2022-12-17T05:45:26.253Z,3.40
2022-12-17T05:48:16.529Z,3.50
2022-12-17T05:51:01.964Z,3.40
2022-12-17T05:53:47.323Z,3.57
2022-12-17T05:56:32.614Z,3.57
2022-12-17T05:59:18.979Z,3.73
2022-12-17T06:02:13.490Z,3.50
2022-12-17T06:05:02.411Z,3.40
2022-12-17T06:07:51.528Z,3.73
2022-12-17T06:10:37.013Z,3.87
2022-12-17T06:13:27.787Z,3.47
2022-12-17T06:16:13.386Z,3.17
2022-12-17T06:19:01.894Z,3.47
2022-12-17T06:22:07.279Z,3.43
2022-12-17T06:24:52.704Z,3.50
2022-12-17T06:27:38.166Z,2.97
2022-12-17T06:30:23.840Z,2.97
2022-12-17T06:33:09.355Z,3.53
2022-12-17T06:35:54.507Z,3.50
2022-12-17T06:38:39.833Z,3.67
2022-12-17T06:41:28.287Z,3.20
2022-12-17T06:44:14.241Z,3.40
2022-12-17T06:46:59.570Z,3.40
2022-12-17T06:49:45.137Z,3.17
2022-12-17T06:52:31.172Z,2.93
2022-12-17T06:55:16.850Z,3.37
2022-12-17T06:58:02.310Z,3.17
2022-12-17T07:00:50.739Z,3.07
2022-12-17T07:03:36.942Z,3.73
2022-12-17T07:06:29.155Z,3.77
2022-12-17T07:09:14.532Z,3.40
2022-12-17T07:12:00.206Z,3.73
2022-12-17T07:14:45.892Z,3.60
2022-12-17T07:17:42.502Z,3.50
2022-12-17T07:20:40.097Z,3.80
2022-12-17T07:23:25.655Z,3.03
2022-12-17T07:26:10.845Z,3.67
2022-12-17T07:28:56.342Z,3.77
2022-12-17T07:31:51.899Z,3.20
2022-12-17T07:34:39.819Z,3.97
2022-12-17T07:37:33.024Z,3.67
2022-12-17T07:40:18.689Z,3.70
2022-12-17T07:43:07.942Z,3.70
2022-12-17T07:45:56.272Z,3.33
2022-12-17T07:48:41.471Z,3.60
2022-12-17T07:51:26.807Z,4.30
2022-12-17T07:54:20.562Z,3.50
2022-12-17T07:57:16.209Z,3.53
2022-12-17T08:00:02.335Z,4.10
2022-12-17T08:02:50.659Z,4.10
2022-12-17T08:05:38.588Z,4.00
2022-12-17T08:08:31.480Z,4.03
2022-12-17T08:11:17.467Z,3.90
2022-12-17T08:14:08.730Z,4.00
2022-12-17T08:16:54.496Z,4.50
2022-12-17T08:19:40.018Z,4.83
2022-12-17T08:22:32.667Z,5.17
2022-12-17T08:25:27.691Z,5.10
2022-12-17T08:28:48.548Z,5.30
2022-12-17T08:31:42.653Z,5.83
2022-12-17T08:34:27.879Z,5.77
2022-12-17T08:37:20.602Z,5.60
2022-12-17T08:40:05.989Z,6.13
2022-12-17T08:42:54.463Z,6.50
2022-12-17T08:45:44.304Z,7.43
2022-12-17T08:48:30.078Z,6.87
2022-12-17T08:51:15.454Z,8.07
2022-12-17T08:54:00.898Z,8.90
2022-12-17T08:56:49.158Z,7.90
2022-12-17T08:59:34.572Z,7.67
2022-12-17T09:02:23.098Z,8.60
2022-12-17T09:05:11.518Z,8.50
2022-12-17T09:07:56.994Z,8.33
2022-12-17T09:10:42.422Z,9.03
2022-12-17T09:13:30.601Z,8.00
2022-12-17T09:16:18.659Z,8.57
2022-12-17T09:19:03.958Z,8.57
2022-12-17T09:21:50.632Z,8.60
2022-12-17T09:24:35.704Z,8.20
2022-12-17T09:27:20.976Z,8.30
2022-12-17T09:30:06.172Z,8.73
2022-12-17T09:32:51.566Z,8.60
2022-12-17T09:35:37.006Z,7.30
2022-12-17T09:38:22.127Z,8.23
2022-12-17T09:41:16.816Z,7.90
2022-12-17T09:44:15.487Z,7.73
2022-12-17T09:47:38.950Z,7.93
2022-12-17T09:50:31.987Z,8.27
2022-12-17T09:53:23.544Z,7.20
2022-12-17T09:56:11.225Z,7.57
2022-12-17T09:58:58.533Z,7.47
2022-12-17T10:01:47.754Z,7.83
2022-12-17T10:05:00.094Z,7.67
2022-12-17T10:07:52.660Z,7.53
2022-12-17T10:10:45.092Z,7.97
2022-12-17T10:13:39.280Z,8.00
2022-12-17T10:16:57.838Z,8.43
2022-12-17T10:19:49.707Z,7.37
2022-12-17T10:22:39.356Z,8.30
2022-12-17T10:25:57.519Z,8.07
2022-12-17T10:28:43.944Z,8.03
2022-12-17T10:31:41.521Z,6.77
2022-12-17T10:34:38.626Z,7.20
2022-12-17T10:37:25.297Z,7.20
2022-12-17T10:40:16.934Z,8.27
2022-12-17T10:43:06.162Z,7.40
2022-12-17T10:45:55.216Z,6.70
2022-12-17T10:48:52.135Z,7.10
2022-12-17T10:51:51.718Z,6.77
2022-12-17T10:54:50.258Z,6.90
2022-12-17T10:58:06.945Z,8.10
2022-12-17T11:00:55.236Z,6.90
2022-12-17T11:04:17.236Z,6.30
2022-12-17T11:07:18.086Z,5.97
2022-12-17T11:10:09.856Z,6.30
2022-12-17T11:12:58.417Z,6.83
2022-12-17T11:16:01.493Z,6.60
2022-12-17T11:19:28.239Z,7.97
2022-12-17T11:22:21.937Z,7.53
2022-12-17T11:25:24.196Z,7.80
2022-12-17T11:28:30.973Z,8.00
2022-12-17T11:31:31.444Z,7.50
2022-12-17T11:34:33.693Z,8.10
2022-12-17T11:37:39.876Z,8.13
2022-12-17T11:40:59.449Z,8.87
2022-12-17T11:43:55.677Z,8.07
2022-12-17T11:46:55.166Z,8.87
2022-12-17T11:50:08.654Z,9.33
2022-12-17T11:53:22.946Z,11.00
2022-12-17T11:56:29.279Z,10.23
2022-12-17T11:59:26.292Z,11.40
2022-12-17T12:02:30.917Z,11.57
2022-12-17T12:05:24.658Z,12.00
2022-12-17T12:08:42.552Z,11.40
2022-12-17T12:11:53.418Z,11.23
2022-12-17T12:14:54.956Z,10.83
2022-12-17T12:18:19.312Z,10.43
2022-12-17T12:21:32.406Z,10.13
2022-12-17T12:24:58.859Z,8.87
2022-12-17T12:27:58.427Z,8.77
2022-12-17T12:30:54.234Z,9.57
2022-12-17T12:34:02.689Z,9.50
2022-12-17T12:36:48.014Z,8.30
2022-12-17T12:39:38.619Z,7.73
2022-12-17T12:42:54.723Z,8.40
2022-12-17T12:46:16.192Z,8.27
2022-12-17T12:49:03.783Z,8.07
2022-12-17T12:51:53.365Z,7.67
2022-12-17T12:55:09.854Z,7.03
2022-12-17T12:57:59.616Z,8.43
2022-12-17T13:01:13.631Z,8.63
2022-12-17T13:04:01.945Z,8.20
2022-12-17T13:06:51.003Z,7.37
2022-12-17T13:09:23.747Z,7.63
2022-12-17T13:11:56.134Z,8.47
2022-12-17T13:15:07.294Z,7.90
2022-12-17T13:17:37.945Z,8.40
2022-12-17T13:20:29.983Z,7.70
2022-12-17T13:23:14.834Z,6.77
2022-12-17T13:25:42.345Z,6.73
2022-12-17T13:28:32.396Z,5.97
2022-12-17T13:31:05.313Z,6.80
2022-12-17T13:34:04.610Z,7.07
2022-12-17T13:37:13.097Z,6.07
2022-12-17T13:40:13.526Z,6.20
2022-12-17T13:42:40.278Z,6.53
2022-12-17T13:45:07.405Z,5.70
2022-12-17T13:47:36.068Z,5.10
2022-12-17T13:50:33.915Z,6.37
2022-12-17T13:53:23.283Z,5.90
2022-12-17T13:55:54.727Z,5.00
2022-12-17T13:58:24.476Z,5.23
2022-12-17T14:00:51.520Z,5.37
2022-12-17T14:03:37.144Z,5.00
2022-12-17T14:06:11.665Z,4.87
2022-12-17T14:08:40.002Z,3.90
2022-12-17T14:11:25.852Z,4.90
2022-12-17T14:14:00.972Z,4.63
2022-12-17T14:16:28.113Z,4.77
2022-12-17T14:18:57.397Z,4.43
2022-12-17T14:21:34.291Z,5.03
2022-12-17T14:24:05.273Z,5.10
